Time;durP1;ratioP1;P1;durP2;ratioP2;P2;SDS_P1;SDS_P2;PMS_P1;PMS_P2;Temp;Humidity;BMP_temperature;BMP_pressure;BME280_temperature;BME280_humidity;BME280_pressure;Samples;Min_cycle;Max_cycle;Signal;HPM_P1;HPM_P2
2022/06/22 00:00:35;;;;;;;3.30;2.90;;;;;;;12.36;100.00;100537.31;5044662;28;20204;-74
2022/06/22 00:03:02;;;;;;;3.70;2.80;;;;;;;12.39;100.00;100543.28;5042078;28;20199;-74
2022/06/22 00:05:34;;;;;;;3.37;2.60;;;;;;;12.33;100.00;100533.06;5033683;28;20729;-74
2022/06/22 00:08:04;;;;;;;4.73;2.90;;;;;;;12.42;100.00;100534.50;5027852;28;20192;-74
2022/06/22 00:10:33;;;;;;;2.83;2.37;;;;;;;12.39;100.00;100526.75;5034567;28;20195;-74
2022/06/22 00:13:01;;;;;;;3.43;2.70;;;;;;;12.36;100.00;100532.91;5040053;28;20211;-74
2022/06/22 00:15:37;;;;;;;5.80;2.47;;;;;;;12.39;100.00;100537.22;5040519;28;20714;-74
2022/06/22 00:18:21;;;;;;;3.27;2.60;;;;;;;12.26;100.00;100535.03;5030331;28;20219;-74
2022/06/22 00:20:52;;;;;;;5.10;2.67;;;;;;;12.27;100.00;100541.09;5036495;28;20207;-74
2022/06/22 00:23:28;;;;;;;5.00;3.00;;;;;;;12.17;100.00;100537.09;5030568;28;20219;-74
2022/06/22 00:26:05;;;;;;;3.13;2.57;;;;;;;12.26;100.00;100534.16;5046993;28;20204;-74
2022/06/22 00:28:35;;;;;;;5.33;2.63;;;;;;;12.22;100.00;100533.41;5039389;28;20201;-74
2022/06/22 00:31:12;;;;;;;5.13;2.70;;;;;;;12.04;100.00;100532.28;5040642;28;20196;-74
2022/06/22 00:33:39;;;;;;;3.20;2.20;;;;;;;12.01;100.00;100534.13;5040636;28;20219;-74
2022/06/22 00:36:16;;;;;;;4.60;2.67;;;;;;;12.01;100.00;100536.75;5038976;28;20199;-74
2022/06/22 00:38:42;;;;;;;6.77;2.80;;;;;;;12.13;100.00;100542.41;5030669;28;20302;-75
2022/06/22 00:41:17;;;;;;;2.70;2.40;;;;;;;12.13;100.00;100536.34;5031613;28;20200;-74
2022/06/22 00:43:44;;;;;;;2.53;2.33;;;;;;;12.01;100.00;100528.91;5043696;28;20226;-73
2022/06/22 00:46:15;;;;;;;6.40;2.50;;;;;;;12.03;100.00;100532.31;5043503;28;20702;-74
2022/06/22 00:48:42;;;;;;;3.07;2.77;;;;;;;11.85;100.00;100526.75;5032824;28;20210;-74
2022/06/22 00:51:15;;;;;;;3.27;2.70;;;;;;;11.84;100.00;100525.06;5044873;28;20425;-74
2022/06/22 00:53:50;;;;;;;5.00;2.10;;;;;;;11.98;100.00;100529.88;5033341;28;20247;-74
2022/06/22 00:56:23;;;;;;;2.60;2.20;;;;;;;11.81;100.00;100532.16;5025370;28;20213;-73
2022/06/22 00:58:58;;;;;;;3.23;2.43;;;;;;;11.82;100.00;100537.34;5038710;28;20216;-73
2022/06/22 01:01:32;;;;;;;2.80;2.60;;;;;;;11.69;100.00;100529.03;5039075;28;20207;-73
2022/06/22 01:04:03;;;;;;;2.90;2.70;;;;;;;11.68;100.00;100531.69;5043150;28;20219;-72
2022/06/22 01:06:41;;;;;;;3.13;2.70;;;;;;;11.66;100.00;100531.75;5040297;28;20208;-73
2022/06/22 01:09:16;;;;;;;4.07;2.53;;;;;;;11.60;100.00;100537.16;5045566;28;20314;-73
2022/06/22 01:14:41;;;;;;;4.97;2.70;;;;;;;11.72;100.00;100517.63;5039319;28;20223;-73
2022/06/22 01:17:17;;;;;;;3.10;2.83;;;;;;;11.72;100.00;100517.63;5044492;28;20207;-73
2022/06/22 01:19:53;;;;;;;4.23;2.77;;;;;;;11.82;100.00;100516.44;5039827;28;20389;-73
2022/06/22 01:22:36;;;;;;;3.77;2.53;;;;;;;11.73;100.00;100522.81;5043825;28;20294;-73
2022/06/22 01:25:18;;;;;;;3.33;2.63;;;;;;;11.40;100.00;100519.53;5042435;28;20304;-73
2022/06/22 01:27:47;;;;;;;3.60;2.40;;;;;;;11.06;100.00;100517.06;5028858;28;20210;-72
2022/06/22 01:30:23;;;;;;;5.40;2.57;;;;;;;11.24;100.00;100519.16;5037522;28;20195;-72
2022/06/22 01:32:50;;;;;;;2.60;2.40;;;;;;;11.33;100.00;100512.78;5044582;28;20594;-72
2022/06/22 01:35:19;;;;;;;4.70;2.80;;;;;;;11.31;100.00;100507.63;5044188;28;20219;-73
2022/06/22 01:37:46;;;;;;;3.27;2.37;;;;;;;11.30;100.00;100505.88;5037072;28;20199;-73
2022/06/22 01:40:16;;;;;;;2.53;2.33;;;;;;;11.43;100.00;100501.13;5035043;28;20280;-72
2022/06/22 01:42:51;;;;;;;4.77;2.90;;;;;;;11.35;100.00;100500.53;5045328;28;20556;-72
2022/06/22 01:45:24;;;;;;;4.47;2.90;;;;;;;11.30;100.00;100490.22;5041102;28;20732;-72
2022/06/22 01:47:55;;;;;;;3.47;2.63;;;;;;;11.42;100.00;100496.84;5043457;28;20691;-72
2022/06/22 01:50:27;;;;;;;2.90;2.50;;;;;;;11.37;100.00;100488.28;5043727;28;20226;-73
2022/06/22 01:53:02;;;;;;;3.03;2.57;;;;;;;11.13;100.00;100495.13;5042865;28;20196;-73
2022/06/22 01:55:37;;;;;;;3.07;2.50;;;;;;;11.16;100.00;100488.03;5041665;28;20216;-73
2022/06/22 01:58:26;;;;;;;3.80;2.40;;;;;;;11.26;100.00;100488.63;5039880;28;20194;-72
2022/06/22 02:00:57;;;;;;;4.53;3.07;;;;;;;11.33;100.00;100491.91;5044367;28;20191;-72
2022/06/22 02:03:28;;;;;;;3.03;2.53;;;;;;;11.45;100.00;100495.88;5045213;28;20219;-72
2022/06/22 02:06:01;;;;;;;4.73;2.47;;;;;;;11.40;100.00;100492.53;5041215;28;20217;-73
2022/06/22 02:08:32;;;;;;;3.00;2.70;;;;;;;11.28;100.00;100499.88;5026360;28;20202;-72
2022/06/22 02:11:04;;;;;;;4.10;2.57;;;;;;;11.36;100.00;100494.41;5039300;28;20231;-73
2022/06/22 02:13:37;;;;;;;4.50;2.63;;;;;;;11.40;100.00;100496.03;5048002;28;20726;-73
2022/06/22 02:16:10;;;;;;;3.47;2.73;;;;;;;11.40;100.00;100488.19;5031447;28;20659;-72
2022/06/22 02:18:43;;;;;;;2.60;2.40;;;;;;;11.47;100.00;100486.25;5047426;28;20222;-72
2022/06/22 02:21:19;;;;;;;3.73;2.83;;;;;;;11.23;100.00;100487.88;5039891;28;20233;-73
2022/06/22 02:23:51;;;;;;;4.13;2.70;;;;;;;11.26;100.00;100490.41;5035658;28;20236;-72
2022/06/22 02:26:25;;;;;;;2.60;2.40;;;;;;;11.26;100.00;100487.78;5041203;28;20207;-73
2022/06/22 02:28:53;;;;;;;2.37;2.10;;;;;;;11.26;100.00;100493.84;5040961;28;20195;-72
2022/06/22 02:31:22;;;;;;;2.90;2.40;;;;;;;11.24;100.00;100485.22;5037271;28;20566;-73
2022/06/22 02:37:41;;;;;;;3.83;2.53;;;;;;;11.20;100.00;100477.53;5037647;28;20226;-72
2022/06/22 02:40:12;;;;;;;2.50;2.30;;;;;;;11.15;100.00;100472.44;5030660;28;20245;-72
2022/06/22 02:45:27;;;;;;;5.10;2.90;;;;;;;10.79;100.00;100473.50;5027454;28;20213;-72
2022/06/22 02:47:57;;;;;;;5.23;2.60;;;;;;;10.52;100.00;100474.31;5042248;28;20551;-73
2022/06/22 02:50:33;;;;;;;3.83;2.80;;;;;;;10.56;100.00;100483.75;5044453;28;20209;-73
2022/06/22 02:53:05;;;;;;;2.57;2.37;;;;;;;10.75;100.00;100477.09;5042905;28;20211;-72
2022/06/22 02:55:35;;;;;;;4.37;2.63;;;;;;;10.87;100.00;100470.69;5045778;28;20189;-72
2022/06/22 02:58:04;;;;;;;3.07;2.77;;;;;;;10.99;100.00;100472.03;5040286;28;20545;-73
2022/06/22 03:00:35;;;;;;;4.83;2.77;;;;;;;11.01;100.00;100480.72;5035453;28;20219;-72
2022/06/22 03:03:07;;;;;;;6.37;3.00;;;;;;;11.03;100.00;100472.81;5043645;28;20690;-73
2022/06/22 03:05:35;;;;;;;3.33;3.03;;;;;;;11.10;100.00;100469.97;5041071;28;20210;-73
2022/06/22 03:08:02;;;;;;;3.67;3.07;;;;;;;11.19;100.00;100479.28;5040985;28;20209;-73
2022/06/22 03:10:32;;;;;;;2.83;2.63;;;;;;;11.20;100.00;100477.53;5041526;28;20785;-73
2022/06/22 03:13:00;;;;;;;3.67;3.17;;;;;;;11.12;100.00;100462.97;5024970;28;20222;-72
2022/06/22 03:15:30;;;;;;;3.73;2.90;;;;;;;11.16;100.00;100468.94;5038992;28;20205;-73
2022/06/22 03:18:00;;;;;;;3.70;3.23;;;;;;;11.01;100.00;100466.78;5025483;28;20234;-73
2022/06/22 03:20:31;;;;;;;3.73;2.97;;;;;;;11.11;100.00;100470.81;5029679;28;20256;-73
2022/06/22 03:23:05;;;;;;;4.87;2.87;;;;;;;11.25;100.00;100466.03;5036276;28;20209;-72
2022/06/22 03:25:38;;;;;;;3.40;3.03;;;;;;;11.35;100.00;100461.38;5042896;28;20196;-72
2022/06/22 03:28:12;;;;;;;4.60;2.83;;;;;;;11.26;100.00;100459.91;5039084;28;20211;-72
2022/06/22 03:30:46;;;;;;;3.13;2.83;;;;;;;11.22;100.00;100453.09;5033488;28;20472;-72
2022/06/22 03:33:19;;;;;;;3.20;2.90;;;;;;;11.05;100.00;100452.78;5045599;28;20370;-72
2022/06/22 03:35:50;;;;;;;3.23;2.63;;;;;;;11.17;100.00;100453.22;5020175;28;20219;-72
2022/06/22 03:38:20;;;;;;;3.10;2.63;;;;;;;11.27;100.00;100450.31;5025151;28;20203;-73
2022/06/22 03:40:49;;;;;;;3.13;2.83;;;;;;;11.43;100.00;100448.91;5042724;28;20210;-73
2022/06/22 03:43:21;;;;;;;3.17;2.87;;;;;;;11.51;100.00;100449.53;5038527;28;20208;-72
2022/06/22 03:45:55;;;;;;;3.47;3.17;;;;;;;11.54;100.00;100459.88;5036092;28;20195;-72
2022/06/22 03:48:30;;;;;;;3.10;2.80;;;;;;;11.75;100.00;100454.88;5036179;28;20564;-73
2022/06/22 03:51:03;;;;;;;4.10;2.87;;;;;;;11.84;100.00;100461.53;5037464;28;20648;-73
2022/06/22 03:53:38;;;;;;;3.47;3.03;;;;;;;11.82;100.00;100458.97;5041320;28;20277;-72
2022/06/22 03:56:07;;;;;;;4.33;2.97;;;;;;;11.80;100.00;100460.75;5042225;28;20731;-73
2022/06/22 03:58:34;;;;;;;2.70;2.50;;;;;;;11.92;100.00;100462.13;5043226;28;20192;-73
2022/06/22 04:01:04;;;;;;;3.37;2.93;;;;;;;11.98;100.00;100456.72;5044075;28;20202;-73
2022/06/22 04:03:32;;;;;;;3.23;2.80;;;;;;;11.95;100.00;100458.59;5034356;28;20557;-73
2022/06/22 04:06:03;;;;;;;3.37;2.60;;;;;;;12.00;100.00;100461.91;5038555;28;20204;-72
2022/06/22 04:08:32;;;;;;;4.93;3.10;;;;;;;12.15;100.00;100455.25;5014807;28;20208;-73
2022/06/22 04:11:03;;;;;;;3.77;2.93;;;;;;;12.34;100.00;100450.25;5040010;28;20206;-72
2022/06/22 04:13:36;;;;;;;4.40;3.57;;;;;;;12.54;100.00;100455.59;5038154;28;20504;-73
2022/06/22 04:16:08;;;;;;;5.03;2.83;;;;;;;12.67;100.00;100461.22;5031849;28;20248;-72
2022/06/22 04:18:41;;;;;;;4.77;3.63;;;;;;;12.74;100.00;100460.06;5034461;28;20563;-73
2022/06/22 04:21:10;;;;;;;4.80;3.13;;;;;;;12.71;100.00;100467.19;5022851;28;20290;-73
2022/06/22 04:23:40;;;;;;;3.80;3.43;;;;;;;12.76;100.00;100465.25;5035732;28;20729;-73
2022/06/22 04:26:13;;;;;;;3.70;3.13;;;;;;;12.89;100.00;100461.25;5045635;28;20203;-73
2022/06/22 04:28:44;;;;;;;3.70;3.20;;;;;;;13.06;100.00;100466.69;5038162;28;20210;-73
2022/06/22 04:31:18;;;;;;;4.30;3.57;;;;;;;13.31;100.00;100465.75;5043158;28;20200;-73
2022/06/22 04:33:48;;;;;;;4.03;3.20;;;;;;;13.53;100.00;100470.13;5028254;28;20228;-73
2022/06/22 04:36:20;;;;;;;2.93;2.70;;;;;;;13.66;100.00;100468.69;5042751;28;20192;-73
2022/06/22 04:38:51;;;;;;;5.00;3.03;;;;;;;13.77;100.00;100465.63;5046102;28;20554;-73
2022/06/22 04:41:26;;;;;;;3.37;3.07;;;;;;;14.00;100.00;100470.78;5040022;28;20993;-73
2022/06/22 04:43:54;;;;;;;8.33;2.93;;;;;;;14.20;100.00;100469.91;5045560;28;20702;-73
2022/06/22 04:46:27;;;;;;;3.73;2.67;;;;;;;14.33;100.00;100474.59;5041907;28;20210;-72
2022/06/22 04:48:58;;;;;;;3.90;2.80;;;;;;;14.50;100.00;100469.47;5044641;28;20199;-72
2022/06/22 04:51:32;;;;;;;3.73;2.80;;;;;;;14.62;100.00;100465.47;5046072;28;20221;-73
2022/06/22 04:54:06;;;;;;;5.43;2.73;;;;;;;14.77;100.00;100471.78;5041095;28;20679;-73
2022/06/22 04:56:37;;;;;;;5.43;3.33;;;;;;;14.93;100.00;100472.78;5043744;28;20211;-73
2022/06/22 04:59:05;;;;;;;2.83;2.57;;;;;;;15.04;100.00;100484.53;5043333;28;20598;-73
2022/06/22 05:01:37;;;;;;;4.43;2.80;;;;;;;15.11;100.00;100485.97;5044158;28;20207;-73
2022/06/22 05:04:10;;;;;;;4.00;2.70;;;;;;;15.16;100.00;100494.47;5042244;28;20698;-73
2022/06/22 05:06:42;;;;;;;2.17;2.07;;;;;;;15.30;100.00;100493.81;5025864;28;20200;-73
2022/06/22 05:09:14;;;;;;;2.60;2.30;;;;;;;15.46;100.00;100489.53;5043689;28;20738;-73
2022/06/22 05:11:44;;;;;;;2.33;2.13;;;;;;;15.56;100.00;100496.97;5039679;28;20208;-73
2022/06/22 05:14:17;;;;;;;3.40;2.33;;;;;;;15.72;100.00;100497.91;5044470;28;20224;-73
2022/06/22 05:16:47;;;;;;;3.80;2.43;;;;;;;15.83;100.00;100500.91;5044509;28;20205;-73
2022/06/22 05:19:16;;;;;;;5.10;2.43;;;;;;;15.89;100.00;100505.00;5044240;28;20220;-73
2022/06/22 05:21:45;;;;;;;3.37;2.40;;;;;;;15.99;100.00;100513.25;5025689;28;20287;-73
2022/06/22 05:24:18;;;;;;;3.77;2.33;;;;;;;16.12;100.00;100503.81;5040232;28;20666;-73
2022/06/22 05:26:46;;;;;;;2.77;2.50;;;;;;;16.23;99.77;100509.38;5043017;28;20566;-73
2022/06/22 05:29:16;;;;;;;4.03;2.37;;;;;;;16.37;99.57;100510.44;5041765;28;20634;-73
2022/06/22 05:31:46;;;;;;;5.07;2.80;;;;;;;16.46;98.29;100516.09;5038022;28;20202;-73
2022/06/22 05:34:20;;;;;;;3.03;2.47;;;;;;;16.59;98.40;100520.72;5039873;28;20627;-73
2022/06/22 05:36:50;;;;;;;6.37;2.90;;;;;;;16.70;96.29;100515.72;5039656;28;20577;-74
2022/06/22 05:39:17;;;;;;;5.63;2.53;;;;;;;16.79;96.61;100511.72;5039908;28;20619;-74
2022/06/22 05:41:46;;;;;;;3.97;2.67;;;;;;;16.81;93.54;100515.97;5038903;28;20572;-74
2022/06/22 05:44:18;;;;;;;4.30;2.47;;;;;;;16.85;93.42;100516.72;5039884;28;20495;-74
2022/06/22 05:46:50;;;;;;;5.27;2.57;;;;;;;16.94;92.15;100518.84;5040099;28;20210;-74
2022/06/22 05:49:20;;;;;;;4.27;2.67;;;;;;;17.04;92.60;100521.81;5039110;28;20207;-73
2022/06/22 05:51:54;;;;;;;2.43;2.23;;;;;;;17.12;89.84;100532.78;5019129;28;20206;-73
2022/06/22 05:54:27;;;;;;;4.37;2.33;;;;;;;17.22;90.91;100526.06;5024086;28;20481;-73
2022/06/22 05:57:01;;;;;;;4.10;1.93;;;;;;;17.32;87.75;100531.66;5040473;28;20626;-74
2022/06/22 05:59:32;;;;;;;3.60;2.30;;;;;;;17.44;88.05;100526.66;5039914;28;20195;-73
2022/06/22 06:02:05;;;;;;;5.57;2.37;;;;;;;17.50;89.68;100514.00;5036005;28;20203;-73
2022/06/22 06:04:39;;;;;;;3.80;2.10;;;;;;;17.62;87.44;100522.13;5039035;28;20229;-74
2022/06/22 06:07:14;;;;;;;3.60;2.10;;;;;;;17.75;86.58;100525.78;5041573;28;20195;-73
2022/06/22 06:09:41;;;;;;;4.63;2.03;;;;;;;17.90;84.85;100538.06;5038288;28;20641;-73
2022/06/22 06:12:13;;;;;;;3.60;2.20;;;;;;;18.01;86.78;100536.59;5035353;28;20291;-73
2022/06/22 06:14:42;;;;;;;2.40;1.83;;;;;;;18.11;84.41;100546.53;5039841;28;20581;-73
2022/06/22 06:17:12;;;;;;;3.37;2.00;;;;;;;18.20;82.04;100552.22;5038541;28;20208;-74
2022/06/22 06:19:44;;;;;;;4.57;1.70;;;;;;;18.32;85.17;100540.94;5042411;28;20257;-74
2022/06/22 06:22:11;;;;;;;1.50;1.40;;;;;;;18.43;84.16;100546.41;5026248;28;20207;-73
2022/06/22 06:27:34;;;;;;;2.33;1.60;;;;;;;18.54;80.47;100545.78;5043730;28;20235;-73
2022/06/22 06:27:34;;;;;;;3.07;1.73;;;;;;;18.71;76.83;100547.38;5037166;28;20337;-73
2022/06/22 06:30:07;;;;;;;1.83;1.70;;;;;;;18.87;76.11;100542.00;5047024;28;20196;-74
2022/06/22 06:32:40;;;;;;;5.47;1.73;;;;;;;19.05;73.93;100547.94;5037025;28;20548;-73
2022/06/22 06:35:19;;;;;;;2.13;1.70;;;;;;;19.16;74.36;100544.63;5037488;28;20230;-73
2022/06/22 06:37:53;;;;;;;2.73;1.40;;;;;;;19.29;68.76;100554.34;5040220;28;20203;-73
2022/06/22 06:40:25;;;;;;;1.60;1.50;;;;;;;19.42;69.88;100551.75;5040422;28;20298;-73
2022/06/22 06:42:57;;;;;;;3.20;1.80;;;;;;;19.53;68.62;100548.41;5039692;28;20660;-73
2022/06/22 06:45:27;;;;;;;2.33;1.40;;;;;;;19.65;66.24;100554.69;5044162;28;20687;-73
2022/06/22 06:48:08;;;;;;;3.23;1.47;;;;;;;19.79;65.29;100549.38;5035478;28;20199;-74
2022/06/22 06:50:40;;;;;;;4.10;1.50;;;;;;;19.94;61.48;100557.25;5038942;28;20205;-73
2022/06/22 06:53:17;;;;;;;1.70;1.53;;;;;;;20.08;64.68;100549.22;5038859;28;20211;-73
2022/06/22 06:55:51;;;;;;;1.60;1.37;;;;;;;20.23;62.69;100550.84;5024635;28;20680;-73
2022/06/22 06:58:31;;;;;;;3.83;1.40;;;;;;;20.39;62.33;100557.75;5041398;28;20195;-74
2022/06/22 07:00:58;;;;;;;2.50;1.43;;;;;;;20.54;59.99;100559.31;5037033;28;20251;-74
2022/06/22 07:03:28;;;;;;;1.50;1.40;;;;;;;20.65;58.95;100548.03;5042328;28;20586;-74
2022/06/22 07:05:56;;;;;;;2.10;1.37;;;;;;;20.71;60.68;100533.53;5041449;28;20215;-74
2022/06/22 07:08:30;;;;;;;1.70;1.27;;;;;;;20.89;53.52;100544.63;5038498;28;20675;-74
2022/06/22 07:11:02;;;;;;;3.40;1.50;;;;;;;20.98;55.80;100533.34;5040705;28;20195;-74
2022/06/22 07:13:35;;;;;;;2.13;1.20;;;;;;;21.11;55.30;100523.59;5036297;28;20620;-74
2022/06/22 07:16:09;;;;;;;3.60;1.17;;;;;;;21.22;55.56;100525.44;5037956;28;20207;-74
2022/06/22 07:18:40;;;;;;;7.27;1.50;;;;;;;21.27;55.10;100544.53;5039209;28;20286;-73
2022/06/22 07:21:17;;;;;;;4.23;1.40;;;;;;;21.29;56.74;100539.94;5046175;28;20215;-74
2022/06/22 07:23:48;;;;;;;3.50;1.40;;;;;;;21.40;56.03;100540.97;5041618;28;20222;-74
2022/06/22 07:26:23;;;;;;;4.43;1.40;;;;;;;21.49;54.01;100541.16;5038219;28;20204;-74
2022/06/22 07:28:58;;;;;;;2.60;1.50;;;;;;;21.54;52.19;100552.28;5041645;28;20494;-74
2022/06/22 07:31:27;;;;;;;2.33;1.40;;;;;;;21.72;53.50;100550.13;5041429;28;20717;-74
2022/06/22 07:34:01;;;;;;;1.37;1.10;;;;;;;21.79;51.76;100561.09;5039102;28;20586;-74
2022/06/22 07:36:34;;;;;;;1.53;1.10;;;;;;;21.87;51.01;100548.09;5037046;28;20199;-74
2022/06/22 07:39:06;;;;;;;2.27;1.30;;;;;;;22.00;50.64;100540.06;5038949;28;20203;-74
2022/06/22 07:41:34;;;;;;;2.77;1.23;;;;;;;22.05;48.67;100548.53;5040589;28;20207;-74
2022/06/22 07:44:04;;;;;;;1.97;1.27;;;;;;;22.12;48.11;100557.72;5037469;28;20230;-74
2022/06/22 07:46:36;;;;;;;1.20;1.10;;;;;;;22.12;48.20;100543.59;5039678;28;20215;-74
2022/06/22 07:49:09;;;;;;;2.03;1.00;;;;;;;22.11;47.86;100540.09;5033960;28;20226;-74
2022/06/22 07:51:43;;;;;;;1.63;1.30;;;;;;;22.37;48.18;100542.59;5037103;28;20200;-74
2022/06/22 07:54:14;;;;;;;1.87;1.30;;;;;;;22.30;47.12;100542.25;5040998;28;20224;-74
2022/06/22 07:56:52;;;;;;;2.03;1.10;;;;;;;22.37;50.40;100529.31;5037628;28;20566;-74
2022/06/22 07:59:24;;;;;;;2.60;1.40;;;;;;;22.52;46.58;100532.59;5037574;28;20198;-74
2022/06/22 08:01:54;;;;;;;1.60;1.30;;;;;;;22.40;46.79;100529.09;5034755;28;20654;-74
2022/06/22 08:04:26;;;;;;;2.70;1.40;;;;;;;22.40;47.19;100526.44;5041249;28;20233;-74
2022/06/22 08:06:59;;;;;;;1.17;1.07;;;;;;;22.69;47.03;100531.31;5039281;28;20203;-73
2022/06/22 08:09:34;;;;;;;5.07;1.27;;;;;;;22.90;47.42;100526.06;5044807;28;20195;-74
2022/06/22 08:12:04;;;;;;;2.37;1.47;;;;;;;22.99;47.76;100524.50;5042679;28;20198;-74
2022/06/22 08:14:35;;;;;;;2.33;1.23;;;;;;;22.91;45.13;100526.94;5040851;28;20731;-74
2022/06/22 08:17:04;;;;;;;2.83;1.30;;;;;;;22.94;45.60;100526.69;5036471;28;20612;-74
2022/06/22 08:19:32;;;;;;;1.75;1.30;;;;;;;22.95;44.36;100531.03;5038299;28;20460;-74
2022/06/22 08:22:04;;;;;;;1.30;1.20;;;;;;;23.02;44.17;100522.47;5043634;28;20214;-74
2022/06/22 08:24:32;;;;;;;1.20;1.10;;;;;;;23.21;43.67;100521.81;5039527;28;20224;-74
2022/06/22 08:27:01;;;;;;;2.13;1.07;;;;;;;23.32;44.67;100514.78;5039392;28;20683;-74
2022/06/22 08:29:31;;;;;;;1.77;1.05;;;;;;;23.43;44.52;100520.09;5043529;28;20192;-74
2022/06/22 08:32:00;;;;;;;2.75;1.10;;;;;;;23.48;42.64;100512.56;5043176;28;20283;-74
2022/06/22 08:34:32;;;;;;;2.07;1.20;;;;;;;23.57;43.33;100510.94;5047844;28;20220;-74
2022/06/22 08:37:07;;;;;;;2.55;1.10;;;;;;;23.48;42.25;100495.75;5042653;28;20200;-74
2022/06/22 08:39:39;;;;;;;2.10;1.30;;;;;;;23.52;44.41;100499.88;5037421;28;20195;-74
2022/06/22 08:42:21;;;;;;;2.13;1.15;;;;;;;23.63;41.33;100498.00;5043641;28;20567;-74
2022/06/22 08:45:02;;;;;;;1.60;0.90;;;;;;;23.67;39.99;100500.41;5044477;28;20253;-74
2022/06/22 08:48:05;;;;;;;1.10;0.98;;;;;;;23.73;41.16;100484.78;5041272;28;20199;-74
2022/06/22 08:51:10;;;;;;;4.25;1.20;;;;;;;23.93;43.21;100480.44;5043278;28;20928;-74
2022/06/22 08:54:01;;;;;;;4.25;1.20;;;;;;;24.14;43.57;100492.94;5039987;28;20226;-74
2022/06/22 08:56:39;;;;;;;1.42;1.05;;;;;;;24.32;42.91;100485.16;5031824;28;20211;-74
2022/06/22 08:59:20;;;;;;;0.90;0.90;;;;;;;24.34;39.66;100491.19;5038042;28;20230;-74
2022/06/22 09:01:59;;;;;;;1.77;1.20;;;;;;;24.37;40.67;100496.28;5039542;28;20211;-74
2022/06/22 09:04:44;;;;;;;1.83;1.10;;;;;;;24.38;39.31;100495.31;5039205;28;20238;-73
2022/06/22 09:07:27;;;;;;;1.70;1.20;;;;;;;24.52;42.58;100478.97;5043720;28;20199;-74
2022/06/22 09:10:26;;;;;;;1.23;0.88;;;;;;;24.67;38.83;100489.28;5035950;28;20207;-74
2022/06/22 09:13:16;;;;;;;1.27;0.90;;;;;;;24.58;41.36;100472.28;5040150;28;20207;-74
2022/06/22 09:15:53;;;;;;;1.40;1.00;;;;;;;24.60;37.23;100486.31;5036013;28;20200;-74
2022/06/22 09:18:36;;;;;;;1.33;1.00;;;;;;;24.75;38.88;100476.97;5036240;28;20207;-74
2022/06/22 09:21:17;;;;;;;1.20;1.00;;;;;;;24.80;38.35;100487.22;5041753;28;20299;-74
2022/06/22 09:23:58;;;;;;;1.55;1.23;;;;;;;24.64;36.81;100487.72;5038198;28;20231;-73
2022/06/22 09:26:35;;;;;;;2.58;1.20;;;;;;;24.73;37.32;100483.41;5044164;28;20203;-73
2022/06/22 09:29:07;;;;;;;1.83;0.95;;;;;;;24.68;36.60;100482.97;5024950;28;20246;-73
2022/06/22 09:31:56;;;;;;;1.20;1.10;;;;;;;24.74;37.46;100477.09;5042387;28;20192;-73
2022/06/22 09:34:41;;;;;;;1.17;0.98;;;;;;;24.75;36.88;100474.28;5039655;28;20243;-73
2022/06/22 09:37:26;;;;;;;1.50;0.85;;;;;;;24.67;35.80;100487.44;5041827;28;20200;-74
2022/06/22 09:40:22;;;;;;;0.93;0.90;;;;;;;24.74;35.89;100477.09;5038555;28;20192;-74
2022/06/22 09:43:04;;;;;;;1.40;1.10;;;;;;;24.72;37.24;100481.72;5042094;28;20191;-73
2022/06/22 09:45:59;;;;;;;1.23;1.00;;;;;;;24.96;37.97;100484.03;5042938;28;20246;-73
2022/06/22 09:48:47;;;;;;;1.85;1.00;;;;;;;25.16;40.84;100468.91;5042155;28;20200;-73
2022/06/22 09:51:28;;;;;;;2.90;1.13;;;;;;;25.32;35.41;100481.75;5047032;28;20191;-74
2022/06/22 09:57:13;;;;;;;2.72;1.15;;;;;;;25.45;36.37;100476.97;5044954;28;20202;-73
2022/06/22 09:59:55;;;;;;;1.08;1.05;;;;;;;25.43;36.03;100480.75;5033586;28;20223;-73
2022/06/22 10:02:51;;;;;;;1.10;1.00;;;;;;;25.48;36.91;100476.69;5049380;28;20227;-73
2022/06/22 10:05:52;;;;;;;1.27;1.17;;;;;;;25.52;39.15;100471.91;5045538;28;20219;-73
2022/06/22 10:08:28;;;;;;;1.48;0.98;;;;;;;25.52;39.69;100463.91;5046949;28;20198;-73
2022/06/22 10:11:06;;;;;;;1.10;1.00;;;;;;;25.52;39.36;100463.91;5046472;28;20207;-73
2022/06/22 10:13:46;;;;;;;0.90;0.90;;;;;;;25.47;35.22;100469.66;5039075;28;20250;-73
2022/06/22 10:16:30;;;;;;;0.98;0.98;;;;;;;25.78;35.96;100456.16;5049673;28;20213;-72
2022/06/22 10:19:11;;;;;;;1.20;1.00;;;;;;;25.65;33.92;100458.28;5047615;28;20658;-73
2022/06/22 10:21:46;;;;;;;2.33;1.00;;;;;;;25.80;36.02;100450.66;5042526;28;20222;-72
2022/06/22 10:24:28;;;;;;;2.40;1.08;;;;;;;25.92;34.82;100454.84;5044795;28;20228;-72
2022/06/22 10:27:13;;;;;;;1.52;1.10;;;;;;;25.83;34.05;100463.75;5045016;28;20208;-72
2022/06/22 10:29:53;;;;;;;2.55;1.10;;;;;;;26.04;37.25;100450.22;5042440;28;20203;-75
2022/06/22 10:33:03;;;;;;;0.80;0.80;;;;;;;26.10;36.08;100449.63;5044660;28;20199;-73
2022/06/22 10:36:17;;;;;;;1.52;1.05;;;;;;;26.06;36.89;100461.59;5042699;28;20664;-72
2022/06/22 10:39:01;;;;;;;0.98;0.98;;;;;;;26.13;36.52;100461.88;4993985;28;20203;-73
2022/06/22 10:47:32;;;;;;;0.98;0.93;;;;;;;26.02;36.04;100471.75;5041258;28;20230;-72
2022/06/22 10:50:15;;;;;;;1.08;0.90;;;;;;;26.08;34.95;100472.97;5041498;28;20199;-72
2022/06/22 10:53:06;;;;;;;2.45;0.90;;;;;;;26.14;34.34;100469.75;5042884;28;20192;-72
2022/06/22 10:55:47;;;;;;;3.80;1.15;;;;;;;26.26;34.77;100465.06;5026819;28;20211;-72
2022/06/22 10:58:29;;;;;;;1.38;0.90;;;;;;;26.39;35.12;100459.41;5024541;28;20209;-73
2022/06/22 11:01:16;;;;;;;1.70;1.00;;;;;;;26.56;33.43;100463.09;5047761;28;20195;-73
2022/06/22 11:04:16;;;;;;;1.35;1.00;;;;;;;26.53;33.47;100458.91;5041122;28;20249;-72
2022/06/22 11:07:02;;;;;;;0.90;0.90;;;;;;;26.76;33.36;100462.06;5040866;28;20623;-73
2022/06/22 11:10:00;;;;;;;1.52;1.02;;;;;;;26.86;35.82;100453.13;5038199;28;20245;-73
2022/06/22 11:12:39;;;;;;;1.20;1.10;;;;;;;26.92;34.63;100450.69;5038540;28;20287;-73
2022/06/22 11:15:43;;;;;;;1.35;0.98;;;;;;;26.83;33.44;100455.13;5033884;28;20263;-72
2022/06/22 11:18:36;;;;;;;2.08;1.10;;;;;;;26.79;33.35;100447.56;5045028;28;20198;-72
2022/06/22 11:21:12;;;;;;;1.00;0.90;;;;;;;26.52;32.86;100451.03;5047823;28;20465;-73
2022/06/22 11:24:21;;;;;;;1.00;0.90;;;;;;;26.26;32.51;100455.22;5040242;28;20223;-72
2022/06/22 11:33:29;;;;;;;1.55;1.25;;;;;;;26.45;33.98;100440.94;5045609;28;20206;-72
2022/06/22 11:36:08;;;;;;;2.15;1.05;;;;;;;26.47;31.73;100451.47;5031619;28;20222;-73
2022/06/22 11:38:53;;;;;;;1.02;0.98;;;;;;;26.74;32.24;100439.97;5044908;28;20199;-72
2022/06/22 11:41:34;;;;;;;4.70;1.10;;;;;;;26.95;31.95;100445.06;5040717;28;20888;-72
2022/06/22 11:44:17;;;;;;;1.45;1.08;;;;;;;26.91;31.93;100449.03;5040972;28;20886;-72
2022/06/22 11:46:50;;;;;;;1.33;1.10;;;;;;;26.88;31.75;100443.97;5029927;28;20746;-72
2022/06/22 11:49:30;;;;;;;2.85;1.05;;;;;;;26.98;36.08;100431.38;5046260;28;20318;-72
2022/06/22 11:52:28;;;;;;;2.17;1.10;;;;;;;27.07;33.72;100445.69;5039485;28;20190;-73
2022/06/22 11:55:14;;;;;;;1.92;1.10;;;;;;;27.23;33.19;100444.16;5011310;28;20258;-73
2022/06/22 11:58:10;;;;;;;0.80;0.80;;;;;;;27.38;34.08;100437.31;5040839;28;20569;-73
2022/06/22 12:00:45;;;;;;;1.48;1.00;;;;;;;27.51;34.75;100440.44;5038456;28;20215;-73
2022/06/22 12:03:46;;;;;;;2.42;1.10;;;;;;;27.57;33.85;100438.97;5017737;28;20362;-73
2022/06/22 12:06:35;;;;;;;1.63;1.15;;;;;;;27.80;33.16;100446.50;5039808;28;20203;-74
2022/06/22 12:09:12;;;;;;;1.20;1.10;;;;;;;27.89;32.84;100445.56;5019451;28;20265;-72
2022/06/22 12:11:50;;;;;;;4.18;1.27;;;;;;;27.96;33.96;100441.28;5032685;28;20206;-73
2022/06/22 12:17:27;;;;;;;4.00;1.20;;;;;;;27.64;32.14;100432.00;5041537;28;20214;-73
2022/06/22 12:20:02;;;;;;;3.00;1.55;;;;;;;27.61;32.14;100429.63;5031255;28;20239;-72
2022/06/22 12:22:40;;;;;;;1.20;1.10;;;;;;;27.58;32.60;100419.22;5039386;28;20207;-73
2022/06/22 12:25:23;;;;;;;1.35;1.20;;;;;;;27.60;31.74;100427.09;5037947;28;20234;-73
2022/06/22 12:28:03;;;;;;;1.15;1.05;;;;;;;27.64;32.84;100425.81;5035509;28;20204;-73